createdAt,value
2018-12-19T00:00:49.196Z,95.60
2018-12-19T00:03:19.228Z,95.50
2018-12-19T00:05:49.362Z,95.60
2018-12-19T00:08:19.464Z,95.40
2018-12-19T00:10:49.221Z,95.50
2018-12-19T00:13:21.539Z,95.20
2018-12-19T00:15:51.633Z,95.10
2018-12-19T00:18:23.054Z,95.20
2018-12-19T00:20:53.942Z,95.40
2018-12-19T00:23:23.944Z,95.10
2018-12-19T00:25:54.136Z,95.10
2018-12-19T00:28:24.150Z,94.90
2018-12-19T00:30:54.707Z,94.70
2018-12-19T00:33:24.991Z,94.90
2018-12-19T00:35:54.908Z,94.60
2018-12-19T00:38:25.470Z,94.40
2018-12-19T00:40:55.250Z,94.00
2018-12-19T00:43:24.976Z,94.20
2018-12-19T00:45:56.051Z,94.50
2018-12-19T00:48:25.920Z,94.60
2018-12-19T00:50:56.224Z,94.40
2018-12-19T00:53:26.415Z,94.20
2018-12-19T00:55:56.955Z,94.20
2018-12-19T00:58:27.013Z,94.30
2018-12-19T01:00:57.027Z,94.30
2018-12-19T01:03:28.028Z,94.30
2018-12-19T01:05:58.306Z,94.30
2018-12-19T01:08:28.371Z,94.20
2018-12-19T01:10:58.233Z,94.40
2018-12-19T01:13:28.128Z,94.30
2018-12-19T01:15:58.101Z,94.30
2018-12-19T01:18:29.239Z,94.60
2018-12-19T01:21:00.394Z,94.60
2018-12-19T01:23:30.504Z,94.40
2018-12-19T01:26:00.378Z,94.40
2018-12-19T01:28:30.332Z,94.30
2018-12-19T01:31:00.340Z,94.10
2018-12-19T01:33:30.481Z,93.80
2018-12-19T01:36:00.248Z,93.90
2018-12-19T01:38:30.868Z,93.90
2018-12-19T01:41:01.267Z,94.10
2018-12-19T01:43:31.368Z,93.90
2018-12-19T01:46:01.557Z,93.80
2018-12-19T01:48:31.697Z,93.90
2018-12-19T01:51:01.946Z,93.70
2018-12-19T01:53:31.906Z,93.80
2018-12-19T01:56:02.001Z,93.70
2018-12-19T01:58:32.140Z,93.80
2018-12-19T02:01:01.895Z,93.50
2018-12-19T02:03:31.978Z,93.80
2018-12-19T02:06:02.472Z,94.00
2018-12-19T02:08:33.392Z,93.60
2018-12-19T02:11:03.432Z,93.60
2018-12-19T02:13:33.217Z,93.70
2018-12-19T02:16:03.098Z,93.50
2018-12-19T02:18:34.071Z,93.60
2018-12-19T02:21:04.329Z,93.80
2018-12-19T02:23:35.136Z,93.60
2018-12-19T02:26:05.764Z,93.60
2018-12-19T02:28:35.677Z,93.50
2018-12-19T02:31:06.248Z,93.60
2018-12-19T02:33:37.266Z,93.60
2018-12-19T02:36:07.954Z,93.30
2018-12-19T02:38:38.133Z,93.50
2018-12-19T02:41:08.948Z,93.20
2018-12-19T02:43:38.696Z,93.70
2018-12-19T02:46:08.976Z,93.50
2018-12-19T02:48:38.945Z,93.60
2018-12-19T02:51:09.000Z,93.60
2018-12-19T02:53:39.099Z,93.70
2018-12-19T02:56:09.265Z,93.80
2018-12-19T02:58:39.235Z,93.90
2018-12-19T03:01:10.464Z,93.60
2018-12-19T03:03:40.251Z,93.50
2018-12-19T03:06:10.101Z,93.30
2018-12-19T03:08:40.243Z,93.30
2018-12-19T03:11:11.075Z,93.30
2018-12-19T03:13:41.619Z,93.30
2018-12-19T03:16:11.991Z,93.40
2018-12-19T03:18:41.768Z,93.00
2018-12-19T03:21:12.085Z,92.80
2018-12-19T03:23:42.000Z,92.90
2018-12-19T03:26:11.973Z,92.80
2018-12-19T03:28:41.979Z,93.10
2018-12-19T03:31:12.278Z,92.60
2018-12-19T03:33:42.564Z,92.60
2018-12-19T03:36:12.389Z,92.60
2018-12-19T03:38:42.338Z,92.60
2018-12-19T03:41:12.636Z,92.60
2018-12-19T03:43:42.581Z,92.40
2018-12-19T03:46:13.439Z,92.50
2018-12-19T03:48:48.669Z,92.60
2018-12-19T03:51:18.576Z,92.50
2018-12-19T03:53:48.908Z,92.40
2018-12-19T03:56:18.995Z,92.30
2018-12-19T03:58:49.420Z,92.20
2018-12-19T04:01:19.376Z,92.30
2018-12-19T04:03:49.733Z,92.30
2018-12-19T04:06:20.417Z,92.10
2018-12-19T04:08:50.438Z,92.20
2018-12-19T04:11:20.341Z,92.10
2018-12-19T04:13:50.989Z,92.20
2018-12-19T04:16:20.917Z,92.20
2018-12-19T04:18:50.967Z,92.10
2018-12-19T04:21:20.980Z,92.20
2018-12-19T04:23:50.860Z,92.10
2018-12-19T04:26:20.876Z,91.90
2018-12-19T04:28:51.385Z,91.90
2018-12-19T04:31:21.420Z,92.00
2018-12-19T04:33:51.688Z,91.90
2018-12-19T04:36:21.941Z,91.80
2018-12-19T04:38:52.139Z,92.00
2018-12-19T04:41:22.382Z,92.10
2018-12-19T04:43:52.924Z,92.00
2018-12-19T04:46:22.770Z,92.10
2018-12-19T04:48:52.883Z,92.00
2018-12-19T04:51:22.575Z,92.10
2018-12-19T04:53:52.585Z,92.10
2018-12-19T04:56:22.912Z,92.10
2018-12-19T04:58:52.902Z,92.10
2018-12-19T05:01:23.116Z,92.40
2018-12-19T05:03:53.376Z,92.30
2018-12-19T05:06:23.541Z,92.50
2018-12-19T05:08:53.566Z,92.80
2018-12-19T05:11:23.762Z,92.70
2018-12-19T05:13:53.706Z,92.60
2018-12-19T05:16:23.650Z,92.80
2018-12-19T05:18:53.712Z,92.90
2018-12-19T05:21:24.037Z,92.80
2018-12-19T05:23:54.011Z,92.90
2018-12-19T05:26:24.091Z,93.10
2018-12-19T05:28:54.229Z,93.40
2018-12-19T05:31:27.423Z,93.60
2018-12-19T05:33:57.461Z,94.10
2018-12-19T05:36:27.604Z,94.50
2018-12-19T05:38:57.818Z,95.00
2018-12-19T05:41:27.951Z,95.50
2018-12-19T05:43:59.784Z,96.00
2018-12-19T05:46:29.859Z,96.60
2018-12-19T05:49:00.074Z,96.30
2018-12-19T05:51:31.144Z,96.50
2018-12-19T05:54:02.101Z,97.30
2018-12-19T05:56:32.221Z,97.50
2018-12-19T05:59:02.575Z,97.30
2018-12-19T06:01:32.933Z,97.60
2018-12-19T06:04:03.193Z,97.90
2018-12-19T06:06:33.680Z,98.40
2018-12-19T06:09:04.633Z,98.50
2018-12-19T06:11:34.534Z,98.40
2018-12-19T06:14:08.721Z,98.80
2018-12-19T06:16:39.521Z,98.90
2018-12-19T06:19:10.569Z,99.50
2018-12-19T06:21:40.430Z,99.50
2018-12-19T06:24:11.947Z,99.40
2018-12-19T06:26:42.167Z,99.90
2018-12-19T06:29:12.474Z,99.90
2018-12-19T06:31:42.797Z,99.70
2018-12-19T06:34:13.330Z,99.90
2018-12-19T06:36:44.615Z,99.90
2018-12-19T06:39:16.459Z,99.90
2018-12-19T06:41:48.350Z,99.90
2018-12-19T06:44:18.355Z,99.90
2018-12-19T06:46:48.925Z,99.90
2018-12-19T06:49:19.913Z,99.90
2018-12-19T06:51:50.000Z,99.90
2018-12-19T06:54:20.514Z,99.90
2018-12-19T06:56:51.923Z,99.90
2018-12-19T06:59:22.648Z,99.90
2018-12-19T07:01:54.769Z,99.90
2018-12-19T07:04:26.821Z,99.90
2018-12-19T07:06:56.565Z,99.70
2018-12-19T07:09:26.961Z,99.90
2018-12-19T07:11:57.176Z,99.90
2018-12-19T07:14:29.095Z,99.90
2018-12-19T07:17:00.096Z,99.90
2018-12-19T07:19:30.412Z,99.90
2018-12-19T07:22:01.125Z,99.80
2018-12-19T07:24:32.642Z,99.90
2018-12-19T07:27:03.812Z,99.90
2018-12-19T07:29:35.509Z,99.90
2018-12-19T07:32:07.504Z,99.90
2018-12-19T07:34:37.595Z,99.90
2018-12-19T07:37:10.444Z,99.90
2018-12-19T07:39:40.827Z,99.90
2018-12-19T07:42:12.363Z,99.90
2018-12-19T07:44:43.597Z,99.90
2018-12-19T07:47:14.124Z,99.90
2018-12-19T07:49:45.116Z,99.90
2018-12-19T07:52:15.664Z,99.90
2018-12-19T07:54:46.394Z,99.90
2018-12-19T07:57:18.766Z,99.90
2018-12-19T07:59:49.221Z,99.90
2018-12-19T08:02:19.721Z,99.90
2018-12-19T08:04:50.447Z,99.90
2018-12-19T08:07:20.424Z,99.90
2018-12-19T08:09:52.291Z,99.90
2018-12-19T08:12:22.779Z,99.90
2018-12-19T08:14:57.711Z,99.90
2018-12-19T08:17:28.153Z,99.90
2018-12-19T08:19:59.103Z,99.90
2018-12-19T08:22:29.501Z,99.90
2018-12-19T08:25:00.773Z,99.90
2018-12-19T08:27:31.285Z,99.90
2018-12-19T08:30:03.004Z,99.90
2018-12-19T08:32:33.188Z,99.90
2018-12-19T08:35:04.291Z,99.90
2018-12-19T08:37:35.725Z,99.90
2018-12-19T08:40:07.253Z,99.90
2018-12-19T08:42:37.413Z,99.90
2018-12-19T08:45:08.057Z,99.90
2018-12-19T08:47:39.411Z,99.90
2018-12-19T08:50:11.081Z,99.90
2018-12-19T08:52:41.111Z,99.90
2018-12-19T08:55:14.013Z,99.90
2018-12-19T08:57:44.865Z,99.90
2018-12-19T09:00:15.952Z,99.90
2018-12-19T09:02:46.111Z,99.90
2018-12-19T09:05:17.515Z,99.90
2018-12-19T09:07:47.451Z,99.90
2018-12-19T09:10:17.468Z,99.90
2018-12-19T09:12:48.009Z,99.90
2018-12-19T09:15:27.674Z,99.90
2018-12-19T09:17:57.607Z,99.90
2018-12-19T09:20:28.376Z,99.90
2018-12-19T09:22:58.536Z,99.90
2018-12-19T09:25:30.424Z,99.90
2018-12-19T09:28:02.481Z,99.90
2018-12-19T09:30:33.047Z,99.90
2018-12-19T09:33:03.568Z,99.90
2018-12-19T09:35:34.846Z,99.90
2018-12-19T09:38:07.133Z,99.90
2018-12-19T09:40:38.465Z,99.90
2018-12-19T09:43:11.206Z,99.90
2018-12-19T09:45:41.176Z,99.90
2018-12-19T09:48:11.195Z,99.90
2018-12-19T09:50:42.607Z,99.90
2018-12-19T09:53:12.910Z,99.90
2018-12-19T09:55:43.930Z,99.90
2018-12-19T09:58:13.824Z,99.90
2018-12-19T10:00:44.492Z,99.90
2018-12-19T10:03:15.231Z,99.90
2018-12-19T10:05:47.256Z,99.90
2018-12-19T10:08:18.481Z,99.90
2018-12-19T10:10:48.453Z,99.90
2018-12-19T10:13:18.677Z,99.90
2018-12-19T10:15:48.763Z,99.90
2018-12-19T10:18:19.756Z,99.90
2018-12-19T10:20:50.504Z,99.90
2018-12-19T10:23:21.040Z,99.90
2018-12-19T10:25:56.872Z,99.90
2018-12-19T10:28:32.512Z,99.90
2018-12-19T10:31:02.531Z,99.90
2018-12-19T10:34:38.099Z,99.90
2018-12-19T10:37:08.117Z,99.90
2018-12-19T10:39:38.784Z,99.90
2018-12-19T10:42:08.984Z,99.90
2018-12-19T10:44:41.643Z,99.90
2018-12-19T10:47:12.068Z,99.90
2018-12-19T10:49:44.767Z,99.90
2018-12-19T10:52:16.959Z,99.90
2018-12-19T10:54:48.371Z,99.90
2018-12-19T10:57:19.971Z,99.90
2018-12-19T10:59:50.272Z,99.90
2018-12-19T11:02:20.743Z,99.90
2018-12-19T11:04:50.953Z,99.90
2018-12-19T11:07:24.200Z,99.90
2018-12-19T11:09:54.379Z,99.90
2018-12-19T11:12:25.556Z,99.90
2018-12-19T11:14:55.676Z,99.90
2018-12-19T11:17:26.964Z,99.90
2018-12-19T11:19:57.468Z,99.90
2018-12-19T11:22:29.000Z,99.90
2018-12-19T11:24:59.207Z,99.90
2018-12-19T11:27:30.119Z,99.90
2018-12-19T11:30:02.040Z,99.90
2018-12-19T11:32:34.472Z,99.90
2018-12-19T11:35:06.751Z,99.90
2018-12-19T11:37:36.971Z,99.90
2018-12-19T11:40:09.915Z,99.90
2018-12-19T11:42:40.961Z,99.90
2018-12-19T11:45:12.791Z,99.90
2018-12-19T11:47:42.952Z,99.90
2018-12-19T11:50:13.558Z,99.90
2018-12-19T11:52:44.111Z,99.90
2018-12-19T11:55:23.350Z,99.90
2018-12-19T11:57:57.443Z,99.90
2018-12-19T12:00:28.556Z,99.90
2018-12-19T12:02:58.704Z,99.90
2018-12-19T12:05:29.224Z,99.90
2018-12-19T12:08:00.145Z,99.90
2018-12-19T12:10:30.336Z,99.90
2018-12-19T12:13:02.626Z,99.90
2018-12-19T12:15:33.308Z,99.90
2018-12-19T12:18:05.260Z,99.90
2018-12-19T12:20:36.404Z,99.90
2018-12-19T12:23:07.052Z,99.90
2018-12-19T12:25:38.080Z,99.90
2018-12-19T12:28:08.679Z,99.90
2018-12-19T12:30:39.095Z,99.90
2018-12-19T12:33:09.774Z,99.90
2018-12-19T12:35:41.602Z,99.90
2018-12-19T12:38:12.552Z,99.90
2018-12-19T12:40:42.869Z,99.90
2018-12-19T12:43:13.610Z,99.90
2018-12-19T12:45:44.441Z,99.90
2018-12-19T12:48:15.632Z,99.90
2018-12-19T12:50:46.076Z,99.90
2018-12-19T12:53:18.032Z,99.90
2018-12-19T12:55:48.933Z,99.90
2018-12-19T12:58:22.130Z,99.90
2018-12-19T13:00:52.980Z,99.90
2018-12-19T13:03:25.500Z,99.90
2018-12-19T13:05:57.744Z,99.90
2018-12-19T13:08:27.986Z,99.90
2018-12-19T13:10:59.624Z,99.90
2018-12-19T13:13:30.073Z,99.90
2018-12-19T13:16:05.633Z,99.90
2018-12-19T13:18:36.946Z,99.90
2018-12-19T13:21:08.224Z,99.90
2018-12-19T13:23:38.885Z,99.90
2018-12-19T13:26:13.108Z,99.90
2018-12-19T13:28:43.025Z,99.90
2018-12-19T13:31:13.494Z,99.90
2018-12-19T13:33:44.012Z,99.90
2018-12-19T13:36:17.345Z,99.90
2018-12-19T13:38:49.211Z,99.90
2018-12-19T13:41:19.649Z,99.90
2018-12-19T13:43:50.512Z,99.90
2018-12-19T13:49:29.408Z,99.90
2018-12-19T13:52:07.210Z,99.90
2018-12-19T13:54:40.797Z,99.90
2018-12-19T13:57:11.410Z,99.90
2018-12-19T13:59:43.807Z,99.90
2018-12-19T14:02:18.477Z,99.90
2018-12-19T14:04:51.608Z,99.90
2018-12-19T14:07:23.450Z,99.90
2018-12-19T14:09:54.777Z,99.90
2018-12-19T14:12:24.829Z,99.90
2018-12-19T14:15:09.826Z,99.90
2018-12-19T14:17:46.632Z,99.90
2018-12-19T14:20:21.810Z,99.90
2018-12-19T14:22:56.636Z,99.90
2018-12-19T14:25:29.307Z,99.90
2018-12-19T14:28:01.372Z,99.90
2018-12-19T14:30:32.354Z,99.90
2018-12-19T14:33:03.306Z,99.90
2018-12-19T14:35:35.043Z,99.90
2018-12-19T14:38:05.377Z,99.90
2018-12-19T14:40:35.888Z,99.90
2018-12-19T14:43:09.117Z,99.90
2018-12-19T14:45:40.822Z,99.90
2018-12-19T14:48:13.168Z,99.90
2018-12-19T14:50:44.678Z,99.90
2018-12-19T14:53:17.429Z,99.90
2018-12-19T14:55:49.139Z,99.90
2018-12-19T14:58:20.425Z,99.90
2018-12-19T15:00:50.578Z,99.90
2018-12-19T15:03:24.055Z,99.90
2018-12-19T15:05:57.266Z,99.90
2018-12-19T15:08:28.802Z,99.90
2018-12-19T15:10:58.887Z,99.90
2018-12-19T15:13:31.328Z,99.90
2018-12-19T15:16:03.298Z,99.90
2018-12-19T15:18:33.614Z,99.90
2018-12-19T15:21:04.336Z,99.90
2018-12-19T15:23:35.249Z,99.90
2018-12-19T15:26:06.431Z,99.90
2018-12-19T15:28:38.001Z,99.90
2018-12-19T15:31:08.910Z,99.90
2018-12-19T15:33:40.611Z,99.90
2018-12-19T15:36:12.463Z,99.90
2018-12-19T15:38:44.875Z,99.90
2018-12-19T15:41:15.151Z,99.90
2018-12-19T15:43:45.542Z,99.90
2018-12-19T15:46:16.272Z,99.90
2018-12-19T15:48:47.606Z,99.90
2018-12-19T15:51:28.106Z,99.90
2018-12-19T15:54:04.006Z,99.90
2018-12-19T15:56:36.352Z,99.90
2018-12-19T15:59:06.940Z,99.90
2018-12-19T16:01:38.391Z,99.90
2018-12-19T16:04:08.761Z,99.90
2018-12-19T16:06:38.747Z,99.90
2018-12-19T16:09:09.280Z,99.90
2018-12-19T16:11:41.252Z,99.90
2018-12-19T16:14:12.518Z,99.90
2018-12-19T16:16:43.226Z,99.90
2018-12-19T16:19:14.022Z,99.90
2018-12-19T16:21:44.356Z,99.90
2018-12-19T16:24:14.881Z,99.90
2018-12-19T16:26:45.236Z,99.90
2018-12-19T16:29:26.223Z,99.90
2018-12-19T16:31:57.229Z,99.90
2018-12-19T16:34:29.355Z,99.90
2018-12-19T16:36:59.942Z,99.90
2018-12-19T16:39:33.487Z,99.90
2018-12-19T16:42:05.605Z,99.90
2018-12-19T16:44:36.400Z,99.90
2018-12-19T16:47:07.920Z,99.90
2018-12-19T16:49:38.522Z,99.90
2018-12-19T16:52:09.129Z,99.90
2018-12-19T16:54:39.609Z,99.90
2018-12-19T16:57:12.499Z,99.90
2018-12-19T16:59:42.600Z,99.90
2018-12-19T17:02:15.706Z,99.90
2018-12-19T17:04:48.201Z,99.90
2018-12-19T17:07:23.328Z,99.90
2018-12-19T17:09:56.387Z,99.90
2018-12-19T17:12:27.752Z,99.90
2018-12-19T17:15:00.539Z,99.90
2018-12-19T17:17:31.832Z,99.90
2018-12-19T17:20:03.607Z,99.90
2018-12-19T17:22:34.400Z,99.90
2018-12-19T17:25:05.299Z,99.90
2018-12-19T17:27:38.585Z,99.90
2018-12-19T17:30:11.318Z,99.90
2018-12-19T17:32:44.462Z,99.90
2018-12-19T17:35:15.555Z,99.90
2018-12-19T17:37:46.831Z,99.90
2018-12-19T17:40:17.408Z,99.90
2018-12-19T17:42:47.663Z,99.90
2018-12-19T17:45:19.603Z,99.90
2018-12-19T17:47:50.424Z,99.90
2018-12-19T17:50:22.562Z,99.90
2018-12-19T17:52:54.624Z,99.90
2018-12-19T17:55:26.490Z,99.90
2018-12-19T17:57:57.584Z,99.90
2018-12-19T18:00:28.088Z,99.90
2018-12-19T18:02:58.284Z,99.90
2018-12-19T18:05:32.293Z,99.90
2018-12-19T18:08:03.483Z,99.90
2018-12-19T18:10:35.450Z,99.90
2018-12-19T18:13:08.315Z,99.90
2018-12-19T18:15:39.933Z,99.90
2018-12-19T18:18:11.727Z,99.90
2018-12-19T18:20:45.139Z,99.90
2018-12-19T18:23:16.935Z,99.90
2018-12-19T18:25:48.471Z,99.90
2018-12-19T18:28:21.296Z,99.90
2018-12-19T18:30:54.626Z,99.90
2018-12-19T18:33:25.992Z,99.90
2018-12-19T18:36:01.795Z,99.90
2018-12-19T18:38:33.769Z,99.90
2018-12-19T18:41:09.111Z,99.90
2018-12-19T18:43:40.230Z,99.90
2018-12-19T18:46:11.232Z,99.90
2018-12-19T18:48:42.944Z,99.90
2018-12-19T18:51:13.037Z,99.90
2018-12-19T18:53:45.028Z,99.90
2018-12-19T18:56:15.699Z,99.90
2018-12-19T18:58:46.173Z,99.90
2018-12-19T19:01:16.690Z,99.90
2018-12-19T19:03:47.528Z,99.90
2018-12-19T19:06:19.739Z,99.90
2018-12-19T19:08:51.121Z,99.90
2018-12-19T19:11:23.671Z,99.90
2018-12-19T19:13:54.062Z,99.90
2018-12-19T19:16:25.070Z,99.90
2018-12-19T19:18:57.377Z,99.90
2018-12-19T19:21:27.905Z,99.90
2018-12-19T19:23:59.424Z,99.90
2018-12-19T19:26:30.896Z,99.90
2018-12-19T19:29:01.673Z,99.90
2018-12-19T19:31:32.443Z,99.90
2018-12-19T19:34:02.793Z,99.90
2018-12-19T19:36:37.904Z,99.90
2018-12-19T19:39:09.431Z,99.90
2018-12-19T19:41:43.186Z,99.90
2018-12-19T19:44:15.252Z,99.90
2018-12-19T19:46:47.760Z,99.90
2018-12-19T19:49:20.796Z,99.90
2018-12-19T19:51:53.894Z,99.90
2018-12-19T19:54:26.802Z,99.90
2018-12-19T19:56:59.188Z,99.90
2018-12-19T19:59:32.591Z,99.90
2018-12-19T20:02:13.243Z,99.90
2018-12-19T20:04:47.045Z,99.90
2018-12-19T20:07:21.947Z,99.90
2018-12-19T20:09:52.444Z,99.90
2018-12-19T20:12:23.258Z,99.90
2018-12-19T20:14:54.344Z,99.90
2018-12-19T20:17:28.737Z,99.90
2018-12-19T20:19:59.937Z,99.90
2018-12-19T20:22:31.576Z,99.90
2018-12-19T20:25:02.806Z,99.90
2018-12-19T20:27:33.907Z,99.90
2018-12-19T20:30:04.693Z,99.90
2018-12-19T20:32:35.282Z,99.90
2018-12-19T20:35:10.312Z,99.90
2018-12-19T20:37:40.650Z,99.90
2018-12-19T20:40:11.646Z,99.90
2018-12-19T20:42:41.675Z,99.90
2018-12-19T20:45:15.000Z,99.90
2018-12-19T20:47:45.867Z,99.90
2018-12-19T20:50:29.315Z,99.90
2018-12-19T20:53:17.593Z,99.90
2018-12-19T20:55:48.203Z,99.90
2018-12-19T20:58:22.007Z,99.90
2018-12-19T21:00:54.529Z,99.90
2018-12-19T21:05:56.531Z,99.90
2018-12-19T21:08:27.423Z,99.90
2018-12-19T21:10:58.323Z,99.90
2018-12-19T21:13:29.198Z,99.90
2018-12-19T21:15:59.817Z,99.90
2018-12-19T21:18:35.508Z,99.90
2018-12-19T21:21:06.583Z,99.90
2018-12-19T21:23:36.752Z,99.90
2018-12-19T21:26:07.741Z,99.90
2018-12-19T21:28:39.939Z,99.90
2018-12-19T21:31:11.668Z,99.90
2018-12-19T21:33:44.472Z,99.90
2018-12-19T21:36:16.203Z,99.90
2018-12-19T21:38:46.668Z,99.90
2018-12-19T21:41:18.190Z,99.90
2018-12-19T21:43:53.633Z,99.90
2018-12-19T21:46:23.210Z,99.90
2018-12-19T21:48:54.480Z,99.90
2018-12-19T21:51:26.482Z,99.90
2018-12-19T21:53:57.299Z,99.90
2018-12-19T21:56:27.860Z,99.90
2018-12-19T21:58:58.394Z,99.90
2018-12-19T22:01:29.050Z,99.90
2018-12-19T22:04:01.979Z,99.90
2018-12-19T22:06:33.348Z,99.90
2018-12-19T22:09:04.619Z,99.90
2018-12-19T22:11:35.079Z,99.90
2018-12-19T22:14:05.947Z,99.90
2018-12-19T22:16:41.702Z,99.90
2018-12-19T22:19:13.392Z,99.90
2018-12-19T22:21:43.706Z,99.90
2018-12-19T22:24:15.857Z,99.90
2018-12-19T22:26:46.970Z,99.90
2018-12-19T22:29:17.028Z,99.90
2018-12-19T22:31:47.543Z,99.90
2018-12-19T22:34:20.832Z,99.90
2018-12-19T22:36:52.618Z,99.90
2018-12-19T22:39:24.173Z,99.90
2018-12-19T22:41:55.576Z,99.90
2018-12-19T22:44:26.534Z,99.90
2018-12-19T22:46:57.510Z,99.90
2018-12-19T22:49:27.880Z,99.90
2018-12-19T22:51:59.155Z,99.90
2018-12-19T22:54:30.133Z,99.90
2018-12-19T22:57:00.437Z,99.90
2018-12-19T22:59:32.053Z,99.90
2018-12-19T23:02:15.238Z,99.90
2018-12-19T23:04:46.265Z,99.90
2018-12-19T23:07:17.952Z,99.90
2018-12-19T23:09:48.717Z,99.90
2018-12-19T23:12:18.958Z,99.90
2018-12-19T23:14:50.918Z,99.90
2018-12-19T23:17:27.687Z,99.90
2018-12-19T23:19:58.341Z,99.90
2018-12-19T23:22:28.357Z,99.90
2018-12-19T23:25:00.685Z,99.90
2018-12-19T23:27:31.196Z,99.90
2018-12-19T23:30:01.365Z,99.90
2018-12-19T23:32:32.888Z,99.90
2018-12-19T23:35:08.353Z,99.90
2018-12-19T23:37:39.483Z,99.90
2018-12-19T23:40:10.558Z,99.90
2018-12-19T23:42:40.957Z,99.90
2018-12-19T23:45:11.309Z,99.90
2018-12-19T23:47:42.141Z,99.90
2018-12-19T23:50:12.261Z,99.90
2018-12-19T23:52:42.958Z,99.90
2018-12-19T23:55:13.048Z,99.90
2018-12-19T23:57:43.741Z,99.90
